createdAt,value
2019-01-03T00:01:01.692Z,99.90
2019-01-03T00:03:44.817Z,99.90
2019-01-03T00:06:31.045Z,99.90
2019-01-03T00:09:02.137Z,99.90
2019-01-03T00:11:48.594Z,99.90
2019-01-03T00:14:19.740Z,99.90
2019-01-03T00:17:06.969Z,99.90
2019-01-03T00:19:40.570Z,99.90
2019-01-03T00:22:18.087Z,99.90
2019-01-03T00:25:01.209Z,99.90
2019-01-03T00:27:50.446Z,99.90
2019-01-03T00:30:37.895Z,99.90
2019-01-03T00:33:14.785Z,99.90
2019-01-03T00:35:55.049Z,99.90
2019-01-03T00:38:32.064Z,99.90
2019-01-03T00:41:06.028Z,99.90
2019-01-03T00:43:49.406Z,99.90
2019-01-03T00:46:29.389Z,99.90
2019-01-03T00:49:09.173Z,99.90
2019-01-03T00:51:49.291Z,99.90
2019-01-03T00:54:35.374Z,99.90
2019-01-03T00:57:06.442Z,99.90
2019-01-03T00:59:53.712Z,99.90
2019-01-03T01:02:24.803Z,99.90
2019-01-03T01:05:02.105Z,99.90
2019-01-03T01:07:49.586Z,99.90
2019-01-03T01:10:37.093Z,99.90
2019-01-03T01:13:08.234Z,99.90
2019-01-03T01:15:39.399Z,99.90
2019-01-03T01:18:22.804Z,99.90
2019-01-03T01:21:11.846Z,99.90
2019-01-03T01:23:46.224Z,99.90
2019-01-03T01:26:26.053Z,99.90
2019-01-03T01:29:13.618Z,99.80
2019-01-03T01:31:48.706Z,99.50
2019-01-03T01:34:25.738Z,99.30
2019-01-03T01:37:15.023Z,99.70
2019-01-03T01:39:54.920Z,99.90
2019-01-03T01:42:26.011Z,99.80
2019-01-03T01:45:15.298Z,99.90
2019-01-03T01:47:48.876Z,99.90
2019-01-03T01:50:19.971Z,99.80
2019-01-03T01:52:56.827Z,99.60
2019-01-03T01:55:39.940Z,99.70
2019-01-03T01:58:11.036Z,99.90
2019-01-03T02:01:00.731Z,99.80
2019-01-03T02:03:40.771Z,99.80
2019-01-03T02:06:27.036Z,99.00
2019-01-03T02:09:10.266Z,99.30
2019-01-03T02:11:53.529Z,99.40
2019-01-03T02:14:30.413Z,99.20
2019-01-03T02:17:13.540Z,99.20
2019-01-03T02:20:00.818Z,99.30
2019-01-03T02:22:41.105Z,99.40
2019-01-03T02:25:28.631Z,99.40
2019-01-03T02:28:16.081Z,99.30
2019-01-03T02:30:47.207Z,99.40
2019-01-03T02:33:24.080Z,99.50
2019-01-03T02:35:57.994Z,99.90
2019-01-03T02:38:29.097Z,99.90
2019-01-03T02:41:09.141Z,99.50
2019-01-03T02:43:40.237Z,99.90
2019-01-03T02:46:17.104Z,99.90
2019-01-03T02:49:16.620Z,99.90
2019-01-03T02:51:56.862Z,99.90
2019-01-03T02:54:28.017Z,99.90
2019-01-03T02:57:04.958Z,99.90
2019-01-03T02:59:45.040Z,99.90
2019-01-03T03:02:21.885Z,99.90
2019-01-03T03:04:58.992Z,99.90
2019-01-03T03:07:32.815Z,99.90
2019-01-03T03:10:12.989Z,99.90
2019-01-03T03:12:56.386Z,99.90
2019-01-03T03:15:36.818Z,99.90
2019-01-03T03:18:07.960Z,99.90
2019-01-03T03:20:55.049Z,99.90
2019-01-03T03:23:28.850Z,99.90
2019-01-03T03:26:08.740Z,99.90
2019-01-03T03:28:56.231Z,99.90
2019-01-03T03:31:45.649Z,99.90
2019-01-03T03:34:25.561Z,99.90
2019-01-03T03:37:11.559Z,99.90
2019-01-03T03:40:01.280Z,99.90
2019-01-03T03:42:32.552Z,99.90
2019-01-03T03:45:12.927Z,99.90
2019-01-03T03:47:59.173Z,99.90
2019-01-03T03:50:30.436Z,99.90
2019-01-03T03:53:01.534Z,99.90
2019-01-03T03:55:44.737Z,99.90
2019-01-03T03:58:32.323Z,99.90
2019-01-03T04:01:19.713Z,99.90
2019-01-03T04:03:51.035Z,99.90
2019-01-03T04:06:22.119Z,99.90
2019-01-03T04:08:56.034Z,99.90
2019-01-03T04:11:36.304Z,99.90
2019-01-03T04:14:16.426Z,99.90
2019-01-03T04:17:03.740Z,99.90
2019-01-03T04:19:51.021Z,99.90
2019-01-03T04:22:22.118Z,99.90
2019-01-03T04:24:58.921Z,99.90
2019-01-03T04:27:35.997Z,99.90
2019-01-03T04:30:23.823Z,99.90
2019-01-03T04:32:57.829Z,99.90
2019-01-03T04:35:31.908Z,99.90
2019-01-03T04:38:12.111Z,99.90
2019-01-03T04:40:43.239Z,99.90
2019-01-03T04:43:20.193Z,99.90
2019-01-03T04:45:54.042Z,99.90
2019-01-03T04:48:43.615Z,99.90
2019-01-03T04:51:29.704Z,99.90
2019-01-03T04:54:09.675Z,99.90
2019-01-03T04:56:59.187Z,99.90
2019-01-03T04:59:38.818Z,99.90
2019-01-03T05:02:12.522Z,99.90
2019-01-03T05:04:52.849Z,99.90
2019-01-03T05:07:36.313Z,99.90
2019-01-03T05:10:24.867Z,99.90
2019-01-03T05:13:07.549Z,99.90
2019-01-03T05:15:54.725Z,99.90
2019-01-03T05:18:42.386Z,99.90
2019-01-03T05:21:13.475Z,99.90
2019-01-03T05:23:44.570Z,99.90
2019-01-03T05:26:32.217Z,99.90
2019-01-03T05:29:09.133Z,99.90
2019-01-03T05:31:43.044Z,99.90
2019-01-03T05:34:29.185Z,99.90
2019-01-03T05:37:06.049Z,99.90
2019-01-03T05:39:39.571Z,99.90
2019-01-03T05:42:13.407Z,99.90
2019-01-03T05:44:47.027Z,99.90
2019-01-03T05:47:33.381Z,99.90
2019-01-03T05:50:10.370Z,99.90
2019-01-03T05:52:47.751Z,99.90
2019-01-03T05:55:30.990Z,99.90
2019-01-03T05:58:18.571Z,99.90
2019-01-03T06:00:49.665Z,99.90
2019-01-03T06:03:27.146Z,99.90
2019-01-03T06:06:13.616Z,99.90
2019-01-03T06:08:51.353Z,99.90
2019-01-03T06:11:38.870Z,99.90
2019-01-03T06:14:26.102Z,99.90
2019-01-03T06:17:13.620Z,99.90
2019-01-03T06:19:50.590Z,99.90
2019-01-03T06:22:21.679Z,99.90
2019-01-03T06:25:08.959Z,99.90
2019-01-03T06:27:56.592Z,99.90
2019-01-03T06:30:44.134Z,99.90
2019-01-03T06:33:27.251Z,99.90
2019-01-03T06:36:04.821Z,99.90
2019-01-03T06:38:38.944Z,99.90
2019-01-03T06:41:25.163Z,99.90
2019-01-03T06:44:08.346Z,99.90
2019-01-03T06:46:55.773Z,99.90
2019-01-03T06:49:29.806Z,99.90
2019-01-03T06:52:19.140Z,99.90
2019-01-03T06:54:58.996Z,99.90
2019-01-03T06:57:33.315Z,99.90
2019-01-03T07:00:13.343Z,99.90
2019-01-03T07:03:00.501Z,99.90
2019-01-03T07:05:49.682Z,99.90
2019-01-03T07:08:23.644Z,99.90
2019-01-03T07:10:54.734Z,99.90
2019-01-03T07:13:35.471Z,99.90
2019-01-03T07:16:21.646Z,99.90
2019-01-03T07:19:08.864Z,99.90
2019-01-03T07:21:40.132Z,99.90
2019-01-03T07:24:14.187Z,99.90
2019-01-03T07:26:51.023Z,99.90
2019-01-03T07:29:38.618Z,99.90
2019-01-03T07:32:15.888Z,99.90
2019-01-03T07:34:50.045Z,99.90
2019-01-03T07:37:36.115Z,99.90
2019-01-03T07:40:09.256Z,99.90
2019-01-03T07:42:43.171Z,99.90
2019-01-03T07:45:30.968Z,99.90
2019-01-03T07:48:02.057Z,99.90
2019-01-03T07:50:49.099Z,99.90
2019-01-03T07:53:36.237Z,99.90
2019-01-03T07:56:16.311Z,99.90
2019-01-03T08:01:29.960Z,99.90
2019-01-03T08:04:09.946Z,99.90
2019-01-03T08:06:41.093Z,99.90
2019-01-03T08:09:12.255Z,99.90
2019-01-03T08:11:58.195Z,99.90
2019-01-03T08:14:38.234Z,99.90
2019-01-03T08:17:12.048Z,99.90
2019-01-03T08:19:43.141Z,99.90
2019-01-03T08:22:14.229Z,99.90
2019-01-03T08:24:51.097Z,99.90
2019-01-03T08:27:38.279Z,99.90
2019-01-03T08:30:10.553Z,99.90
2019-01-03T08:32:58.101Z,99.90
2019-01-03T08:35:34.912Z,99.90
2019-01-03T08:38:08.946Z,99.90
2019-01-03T08:40:46.073Z,99.90
2019-01-03T08:43:33.555Z,99.90
2019-01-03T08:46:13.605Z,99.90
2019-01-03T08:48:50.785Z,99.90
2019-01-03T08:51:39.981Z,99.90
2019-01-03T08:54:22.853Z,99.90
2019-01-03T08:57:03.003Z,99.90
2019-01-03T08:59:36.842Z,99.90
2019-01-03T09:02:24.321Z,99.90
2019-01-03T09:05:01.459Z,99.90
2019-01-03T09:07:49.140Z,99.90
2019-01-03T09:10:29.327Z,99.90
2019-01-03T09:13:16.429Z,99.90
2019-01-03T09:15:47.549Z,99.90
2019-01-03T09:18:33.927Z,99.90
2019-01-03T09:21:19.994Z,99.90
2019-01-03T09:23:57.038Z,99.90
2019-01-03T09:26:28.164Z,99.90
2019-01-03T09:28:59.292Z,99.90
2019-01-03T09:31:42.586Z,99.90
2019-01-03T09:34:16.633Z,99.90
2019-01-03T09:36:47.725Z,99.90
2019-01-03T09:39:18.891Z,99.90
2019-01-03T09:42:06.385Z,99.90
2019-01-03T09:44:43.276Z,99.90
2019-01-03T09:47:12.785Z,99.90
2019-01-03T09:49:42.334Z,99.90
2019-01-03T09:52:11.836Z,99.90
2019-01-03T09:54:41.288Z,99.90
2019-01-03T09:57:10.761Z,99.90
2019-01-03T09:59:40.261Z,99.90
2019-01-03T10:02:09.756Z,99.90
2019-01-03T10:04:39.218Z,99.90
2019-01-03T10:07:08.729Z,99.90
2019-01-03T10:09:38.185Z,99.90
2019-01-03T10:12:07.635Z,99.90
2019-01-03T10:14:37.125Z,99.90
2019-01-03T10:17:06.575Z,99.90
2019-01-03T10:19:36.044Z,99.90
2019-01-03T10:22:05.535Z,99.90
2019-01-03T10:24:35.013Z,99.90
2019-01-03T10:27:04.508Z,99.90
2019-01-03T10:29:34.013Z,99.90
2019-01-03T10:32:03.464Z,99.90
2019-01-03T10:34:32.912Z,99.90
2019-01-03T10:37:02.424Z,99.90
2019-01-03T10:39:31.873Z,99.90
2019-01-03T10:42:01.328Z,99.90
2019-01-03T10:44:30.834Z,99.90
2019-01-03T10:47:00.288Z,99.90
2019-01-03T10:49:29.752Z,99.90
2019-01-03T10:51:59.316Z,99.90
2019-01-03T10:54:28.775Z,99.90
2019-01-03T10:56:58.225Z,99.90
2019-01-03T10:59:27.670Z,99.90
2019-01-03T11:01:58.696Z,99.90
2019-01-03T11:04:28.194Z,99.90
2019-01-03T11:06:58.306Z,99.90
2019-01-03T11:09:27.758Z,99.90
2019-01-03T11:11:57.237Z,99.90
2019-01-03T11:14:26.685Z,99.90
2019-01-03T11:16:56.173Z,99.90
2019-01-03T11:19:25.625Z,99.90
2019-01-03T11:21:55.209Z,99.90
2019-01-03T11:24:24.644Z,99.90
2019-01-03T11:26:54.118Z,99.90
2019-01-03T11:29:23.581Z,99.90
2019-01-03T11:31:53.071Z,99.90
2019-01-03T11:34:22.562Z,99.90
2019-01-03T11:36:52.046Z,99.90
2019-01-03T11:39:21.505Z,99.90
2019-01-03T11:41:50.946Z,99.90
2019-01-03T11:44:20.437Z,99.90
2019-01-03T11:46:49.881Z,99.90
2019-01-03T11:49:19.383Z,99.90
2019-01-03T11:51:48.814Z,99.90
2019-01-03T11:54:18.247Z,99.90
2019-01-03T11:56:47.733Z,99.90
2019-01-03T11:59:17.191Z,99.90
2019-01-03T12:01:46.650Z,99.90
2019-01-03T12:04:16.113Z,99.90
2019-01-03T12:06:45.600Z,99.90
2019-01-03T12:09:15.052Z,99.90
2019-01-03T12:11:44.572Z,99.90
2019-01-03T12:14:14.028Z,99.90
2019-01-03T12:16:43.477Z,99.90
2019-01-03T12:19:12.956Z,99.90
2019-01-03T12:21:42.409Z,99.90
2019-01-03T12:24:11.880Z,99.90
2019-01-03T12:26:41.377Z,99.90
2019-01-03T12:29:10.859Z,99.90
2019-01-03T12:31:40.312Z,99.90
2019-01-03T12:34:09.792Z,99.90
2019-01-03T12:36:39.252Z,99.90
2019-01-03T12:39:08.771Z,99.90
2019-01-03T12:41:38.219Z,99.90
2019-01-03T12:44:07.657Z,99.90
2019-01-03T12:46:37.116Z,99.90
2019-01-03T12:49:06.585Z,99.90
2019-01-03T12:51:36.075Z,99.90
2019-01-03T12:54:05.525Z,99.90
2019-01-03T12:56:35.013Z,99.90
2019-01-03T12:59:04.535Z,99.90
2019-01-03T13:01:34.019Z,99.90
2019-01-03T13:04:03.507Z,99.90
2019-01-03T13:06:32.982Z,99.90
2019-01-03T13:09:02.431Z,99.90
2019-01-03T13:11:31.928Z,99.90
2019-01-03T13:14:01.381Z,99.90
2019-01-03T13:16:30.836Z,99.90
2019-01-03T13:19:00.328Z,99.90
2019-01-03T13:21:29.779Z,99.90
2019-01-03T13:23:59.312Z,99.90
2019-01-03T13:26:28.815Z,99.90
2019-01-03T13:28:58.253Z,99.90
2019-01-03T13:31:27.728Z,99.90
2019-01-03T13:33:57.181Z,99.90
2019-01-03T13:36:26.645Z,99.90
2019-01-03T13:38:56.143Z,99.90
2019-01-03T13:41:25.636Z,99.90
2019-01-03T13:43:55.097Z,99.90
2019-01-03T13:46:24.557Z,99.90
2019-01-03T13:48:54.073Z,99.90
2019-01-03T13:51:23.582Z,99.90
2019-01-03T13:53:53.038Z,99.90
2019-01-03T13:56:22.530Z,99.90
2019-01-03T13:58:52.030Z,99.90
2019-01-03T14:01:21.489Z,99.90
2019-01-03T14:03:50.942Z,99.90
2019-01-03T14:06:20.427Z,99.90
2019-01-03T14:08:49.873Z,99.90
2019-01-03T14:11:19.374Z,99.90
2019-01-03T14:13:48.839Z,99.90
2019-01-03T14:16:18.381Z,99.90
2019-01-03T14:18:47.901Z,99.90
2019-01-03T14:21:17.386Z,99.90
2019-01-03T14:23:46.831Z,99.90
2019-01-03T14:26:16.314Z,99.90
2019-01-03T14:28:45.775Z,99.90
2019-01-03T14:31:15.268Z,99.90
2019-01-03T14:33:44.763Z,99.90
2019-01-03T14:36:14.244Z,99.90
2019-01-03T14:38:43.705Z,99.90
2019-01-03T14:41:13.206Z,99.90
2019-01-03T14:43:42.662Z,99.90
2019-01-03T14:46:12.146Z,99.90
2019-01-03T14:48:41.627Z,99.90
2019-01-03T14:51:11.101Z,99.90
2019-01-03T14:53:40.560Z,99.90
2019-01-03T14:56:10.914Z,99.90
2019-01-03T14:58:40.385Z,99.90
2019-01-03T15:01:09.867Z,99.90
2019-01-03T15:03:39.331Z,99.90
2019-01-03T15:06:08.850Z,99.90
2019-01-03T15:08:38.304Z,99.90
2019-01-03T15:11:07.764Z,99.90
2019-01-03T15:13:37.236Z,99.90
2019-01-03T15:16:06.748Z,99.90
2019-01-03T15:18:36.247Z,99.90
2019-01-03T15:21:05.715Z,99.90
2019-01-03T15:23:35.164Z,99.90
2019-01-03T15:26:04.670Z,99.90
2019-01-03T15:28:34.122Z,99.90
2019-01-03T15:31:03.571Z,99.90
2019-01-03T15:33:33.120Z,99.90
2019-01-03T15:36:02.592Z,99.90
2019-01-03T15:38:32.113Z,99.90
2019-01-03T15:41:01.575Z,99.90
2019-01-03T15:43:31.035Z,99.90
2019-01-03T15:46:00.558Z,99.90
2019-01-03T15:48:30.006Z,99.90
2019-01-03T15:50:59.456Z,99.90
2019-01-03T15:53:28.949Z,99.90
2019-01-03T15:55:58.414Z,99.90
2019-01-03T15:58:27.914Z,99.90
2019-01-03T16:00:57.370Z,99.90
2019-01-03T16:03:26.844Z,99.90
2019-01-03T16:05:56.346Z,99.90
2019-01-03T16:08:25.811Z,99.90
2019-01-03T16:10:55.253Z,99.90
2019-01-03T16:13:24.757Z,99.90
2019-01-03T16:15:54.215Z,99.90
2019-01-03T16:18:23.669Z,99.90
2019-01-03T16:20:53.158Z,99.90
2019-01-03T16:23:22.687Z,99.90
2019-01-03T16:25:52.148Z,99.90
2019-01-03T16:28:21.593Z,99.90
2019-01-03T16:30:51.086Z,99.90
2019-01-03T16:33:20.549Z,99.90
2019-01-03T16:38:19.251Z,99.90
2019-01-03T16:40:48.745Z,99.90
2019-01-03T16:43:18.194Z,99.90
2019-01-03T16:45:47.650Z,99.90
2019-01-03T16:48:17.264Z,99.90
2019-01-03T16:53:17.033Z,99.90
2019-01-03T16:55:46.678Z,99.90
2019-01-03T16:58:16.145Z,99.90
2019-01-03T17:00:45.626Z,99.90
2019-01-03T17:03:15.128Z,99.90
2019-01-03T17:05:44.588Z,99.90
2019-01-03T17:08:14.033Z,99.90
2019-01-03T17:10:44.847Z,99.90
2019-01-03T17:13:14.302Z,99.90
2019-01-03T17:18:13.009Z,99.90
2019-01-03T17:20:42.480Z,99.90
2019-01-03T17:23:11.943Z,99.90
2019-01-03T17:25:41.416Z,99.90
2019-01-03T17:28:10.950Z,99.90
2019-01-03T17:30:40.461Z,99.90
2019-01-03T17:33:09.958Z,99.90
2019-01-03T17:35:39.418Z,99.90
2019-01-03T17:38:08.885Z,99.90
2019-01-03T17:40:38.589Z,99.90
2019-01-03T17:43:08.083Z,99.90
2019-01-03T17:45:37.555Z,99.90
2019-01-03T17:48:07.094Z,99.90
2019-01-03T17:50:36.550Z,99.90
2019-01-03T17:53:05.997Z,99.90
2019-01-03T17:55:35.511Z,99.90
2019-01-03T17:58:04.960Z,99.90
2019-01-03T18:00:35.365Z,99.90
2019-01-03T18:03:05.191Z,99.90
2019-01-03T18:05:34.655Z,99.90
2019-01-03T18:08:04.129Z,99.90
2019-01-03T18:10:35.294Z,99.90
2019-01-03T18:13:04.763Z,99.90
2019-01-03T18:15:34.231Z,99.90
2019-01-03T18:18:04.386Z,99.90
2019-01-03T18:20:33.845Z,99.90
2019-01-03T18:23:03.306Z,99.90
2019-01-03T18:25:32.813Z,99.90
2019-01-03T18:28:02.290Z,99.90
2019-01-03T18:30:31.736Z,99.90
2019-01-03T18:33:01.225Z,99.90
2019-01-03T18:35:30.681Z,99.90
2019-01-03T18:38:00.144Z,99.90
2019-01-03T18:40:29.666Z,99.90
2019-01-03T18:42:59.123Z,99.90
2019-01-03T18:45:28.652Z,99.90
2019-01-03T18:47:58.161Z,99.90
2019-01-03T18:50:27.615Z,99.90
2019-01-03T18:52:57.075Z,99.90
2019-01-03T18:55:26.570Z,99.90
2019-01-03T18:57:56.023Z,99.90
2019-01-03T19:00:25.484Z,99.90
2019-01-03T19:02:55.021Z,99.90
2019-01-03T19:05:24.460Z,99.90
2019-01-03T19:07:53.924Z,99.90
2019-01-03T19:10:28.272Z,99.90
2019-01-03T19:12:55.221Z,99.90
2019-01-03T19:15:24.667Z,99.90
2019-01-03T19:17:54.735Z,99.90
2019-01-03T19:20:24.272Z,99.90
2019-01-03T19:22:53.732Z,99.90
2019-01-03T19:25:23.348Z,99.90
2019-01-03T19:27:52.805Z,99.90
2019-01-03T19:30:22.283Z,99.90
2019-01-03T19:32:51.752Z,99.90
2019-01-03T19:37:57.364Z,99.90
2019-01-03T19:40:26.819Z,99.90
2019-01-03T19:42:56.293Z,99.90
2019-01-03T19:45:26.461Z,99.90
2019-01-03T19:47:55.914Z,99.90
2019-01-03T19:50:26.557Z,99.90
2019-01-03T19:52:56.059Z,99.90
2019-01-03T19:55:25.520Z,99.90
2019-01-03T19:57:54.990Z,99.90
2019-01-03T20:00:24.576Z,99.90
2019-01-03T20:02:54.043Z,99.90
2019-01-03T20:05:23.498Z,99.90
2019-01-03T20:07:53.001Z,99.90
2019-01-03T20:10:22.457Z,99.90
2019-01-03T20:12:53.462Z,99.90
2019-01-03T20:15:22.960Z,99.90
2019-01-03T20:17:52.491Z,99.90
2019-01-03T20:20:22.021Z,99.90
2019-01-03T20:22:51.533Z,99.90
2019-01-03T20:25:21.115Z,99.90
2019-01-03T20:27:50.738Z,99.90
2019-01-03T20:30:20.250Z,99.90
2019-01-03T20:32:49.717Z,99.90
2019-01-03T20:35:19.250Z,99.90
2019-01-03T20:37:50.456Z,99.90
2019-01-03T20:40:19.985Z,99.90
2019-01-03T20:42:49.477Z,99.90
2019-01-03T20:45:18.940Z,99.90
2019-01-03T20:47:48.419Z,99.90
2019-01-03T20:50:17.943Z,99.90
2019-01-03T20:52:47.392Z,99.90
2019-01-03T20:55:16.852Z,99.90
2019-01-03T20:57:46.354Z,99.90
2019-01-03T21:00:17.056Z,99.90
2019-01-03T21:02:46.516Z,99.90
2019-01-03T21:05:18.038Z,99.90
2019-01-03T21:07:47.505Z,99.90
2019-01-03T21:10:16.964Z,99.90
2019-01-03T21:12:46.498Z,99.90
2019-01-03T21:15:17.566Z,99.90
2019-01-03T21:17:47.175Z,99.90
2019-01-03T21:20:17.427Z,99.90
2019-01-03T21:22:46.906Z,99.90
2019-01-03T21:25:16.451Z,99.90
2019-01-03T21:27:45.964Z,99.90
2019-01-03T21:30:18.235Z,99.90
2019-01-03T21:32:47.788Z,99.90
2019-01-03T21:35:19.403Z,99.90
2019-01-03T21:37:48.863Z,99.90
2019-01-03T21:40:18.385Z,99.90
2019-01-03T21:42:47.956Z,99.90
2019-01-03T21:45:17.455Z,99.90
2019-01-03T21:47:46.911Z,99.90
2019-01-03T21:50:16.357Z,99.90
2019-01-03T21:52:45.878Z,99.90
2019-01-03T21:55:15.343Z,99.90
2019-01-03T21:57:44.797Z,99.90
2019-01-03T22:00:14.359Z,99.90
2019-01-03T22:02:43.815Z,99.90
2019-01-03T22:05:13.325Z,99.90
2019-01-03T22:07:42.787Z,99.90
2019-01-03T22:10:12.324Z,99.90
2019-01-03T22:12:41.814Z,99.90
2019-01-03T22:15:15.831Z,99.90
2019-01-03T22:17:42.624Z,99.90
2019-01-03T22:20:12.257Z,99.90
2019-01-03T22:22:41.864Z,99.90
2019-01-03T22:25:11.340Z,99.90
2019-01-03T22:27:40.890Z,99.90
2019-01-03T22:30:11.462Z,99.90
2019-01-03T22:32:40.919Z,99.90
2019-01-03T22:35:10.392Z,99.90
2019-01-03T22:37:39.853Z,99.90
2019-01-03T22:40:09.642Z,99.90
2019-01-03T22:42:39.131Z,99.90
2019-01-03T22:45:09.604Z,99.90
2019-01-03T22:47:39.078Z,99.90
2019-01-03T22:50:10.971Z,99.90
2019-01-03T22:52:40.410Z,99.90
2019-01-03T22:55:09.873Z,99.90
2019-01-03T22:57:39.367Z,99.90
2019-01-03T23:00:23.565Z,99.90
2019-01-03T23:02:53.078Z,99.90
2019-01-03T23:05:22.618Z,99.90
2019-01-03T23:07:52.059Z,99.90
2019-01-03T23:10:21.560Z,99.90
2019-01-03T23:12:51.025Z,99.90
2019-01-03T23:15:20.491Z,99.90
2019-01-03T23:17:49.990Z,99.90
2019-01-03T23:20:19.469Z,99.90
2019-01-03T23:22:49.050Z,99.90
2019-01-03T23:25:18.568Z,99.90
2019-01-03T23:27:48.009Z,99.90
2019-01-03T23:30:17.563Z,99.90
2019-01-03T23:32:47.078Z,99.90
2019-01-03T23:35:16.528Z,99.90
2019-01-03T23:37:46.005Z,99.90
2019-01-03T23:40:15.577Z,99.90
2019-01-03T23:42:45.218Z,99.90
2019-01-03T23:45:20.796Z,99.90
2019-01-03T23:47:52.265Z,99.90
2019-01-03T23:50:28.487Z,99.90
2019-01-03T23:52:58.201Z,99.90
2019-01-03T23:55:28.898Z,99.90
2019-01-03T23:57:58.535Z,99.90
